sensor_id;sensor_type;location;lat;lon;timestamp;temperature;humidity
8408;DHT22;4241;48.452;9.216;2023-05-25T00:01:01;11.10;99.90
8408;DHT22;4241;48.452;9.216;2023-05-25T00:05:55;11.00;99.90
8408;DHT22;4241;48.452;9.216;2023-05-25T00:08:25;11.00;99.90
8408;DHT22;4241;48.452;9.216;2023-05-25T00:10:52;11.10;99.90
8408;DHT22;4241;48.452;9.216;2023-05-25T00:15:46;11.00;99.90
8408;DHT22;4241;48.452;9.216;2023-05-25T00:18:14;11.00;99.90
8408;DHT22;4241;48.452;9.216;2023-05-25T00:20:41;11.00;99.90
8408;DHT22;4241;48.452;9.216;2023-05-25T00:25:37;11.00;99.90
8408;DHT22;4241;48.452;9.216;2023-05-25T00:28:04;11.00;99.90
8408;DHT22;4241;48.452;9.216;2023-05-25T00:30:31;10.90;99.90
8408;DHT22;4241;48.452;9.216;2023-05-25T00:32:57;10.80;99.90
8408;DHT22;4241;48.452;9.216;2023-05-25T00:35:27;10.90;99.90
8408;DHT22;4241;48.452;9.216;2023-05-25T00:37:53;10.80;99.90
8408;DHT22;4241;48.452;9.216;2023-05-25T00:40:20;10.80;99.90
8408;DHT22;4241;48.452;9.216;2023-05-25T00:42:47;10.80;99.90
8408;DHT22;4241;48.452;9.216;2023-05-25T00:45:14;10.70;99.90
8408;DHT22;4241;48.452;9.216;2023-05-25T00:47:42;10.80;99.90
8408;DHT22;4241;48.452;9.216;2023-05-25T00:50:13;10.70;99.90
8408;DHT22;4241;48.452;9.216;2023-05-25T00:52:43;10.90;99.90
8408;DHT22;4241;48.452;9.216;2023-05-25T00:55:11;10.70;99.90
8408;DHT22;4241;48.452;9.216;2023-05-25T00:57:42;10.70;99.90
8408;DHT22;4241;48.452;9.216;2023-05-25T01:00:12;10.50;99.90
8408;DHT22;4241;48.452;9.216;2023-05-25T01:02:40;10.60;99.90
8408;DHT22;4241;48.452;9.216;2023-05-25T01:05:09;10.70;99.90
8408;DHT22;4241;48.452;9.216;2023-05-25T01:07:38;10.60;99.90
8408;DHT22;4241;48.452;9.216;2023-05-25T01:10:10;10.50;99.90
8408;DHT22;4241;48.452;9.216;2023-05-25T01:12:41;10.50;99.90
8408;DHT22;4241;48.452;9.216;2023-05-25T01:15:10;10.40;99.90
8408;DHT22;4241;48.452;9.216;2023-05-25T01:17:37;10.50;99.90
8408;DHT22;4241;48.452;9.216;2023-05-25T01:20:05;10.40;99.90
8408;DHT22;4241;48.452;9.216;2023-05-25T01:22:39;10.40;99.90
8408;DHT22;4241;48.452;9.216;2023-05-25T01:25:12;10.40;99.90
8408;DHT22;4241;48.452;9.216;2023-05-25T01:27:41;10.40;99.90
8408;DHT22;4241;48.452;9.216;2023-05-25T01:30:13;10.40;99.90
8408;DHT22;4241;48.452;9.216;2023-05-25T01:46:05;10.10;99.90
8408;DHT22;4241;48.452;9.216;2023-05-25T01:48:41;10.10;99.90
8408;DHT22;4241;48.452;9.216;2023-05-25T01:51:18;10.00;99.90
8408;DHT22;4241;48.452;9.216;2023-05-25T01:53:51;10.00;99.90
8408;DHT22;4241;48.452;9.216;2023-05-25T01:56:20;10.00;99.90
8408;DHT22;4241;48.452;9.216;2023-05-25T01:58:49;10.00;99.90
8408;DHT22;4241;48.452;9.216;2023-05-25T02:01:18;9.90;99.90
8408;DHT22;4241;48.452;9.216;2023-05-25T02:04:00;9.90;99.90
8408;DHT22;4241;48.452;9.216;2023-05-25T02:06:27;10.00;99.90
8408;DHT22;4241;48.452;9.216;2023-05-25T02:11:21;9.90;99.90
8408;DHT22;4241;48.452;9.216;2023-05-25T02:18:43;9.90;99.90
8408;DHT22;4241;48.452;9.216;2023-05-25T02:23:37;9.90;99.90
8408;DHT22;4241;48.452;9.216;2023-05-25T02:28:31;9.80;99.90
8408;DHT22;4241;48.452;9.216;2023-05-25T02:30:58;9.90;99.90
8408;DHT22;4241;48.452;9.216;2023-05-25T02:33:25;9.70;99.90
8408;DHT22;4241;48.452;9.216;2023-05-25T02:35:53;9.70;99.90
8408;DHT22;4241;48.452;9.216;2023-05-25T02:38:20;9.70;99.90
8408;DHT22;4241;48.452;9.216;2023-05-25T02:48:09;9.50;99.90
8408;DHT22;4241;48.452;9.216;2023-05-25T02:50:36;9.60;99.90
8408;DHT22;4241;48.452;9.216;2023-05-25T02:53:04;9.60;99.90
8408;DHT22;4241;48.452;9.216;2023-05-25T02:55:30;9.50;99.90
8408;DHT22;4241;48.452;9.216;2023-05-25T03:00:25;9.40;99.90
8408;DHT22;4241;48.452;9.216;2023-05-25T03:05:19;9.30;99.90
8408;DHT22;4241;48.452;9.216;2023-05-25T03:07:46;9.20;99.90
8408;DHT22;4241;48.452;9.216;2023-05-25T03:10:14;9.10;99.90
8408;DHT22;4241;48.452;9.216;2023-05-25T03:12:41;9.20;99.90
8408;DHT22;4241;48.452;9.216;2023-05-25T03:15:09;9.20;99.90
8408;DHT22;4241;48.452;9.216;2023-05-25T03:17:37;9.20;99.90
8408;DHT22;4241;48.452;9.216;2023-05-25T03:20:05;9.10;99.90
8408;DHT22;4241;48.452;9.216;2023-05-25T03:25:02;9.00;99.90
8408;DHT22;4241;48.452;9.216;2023-05-25T03:27:30;9.00;99.90
8408;DHT22;4241;48.452;9.216;2023-05-25T03:34:51;9.00;99.90
8408;DHT22;4241;48.452;9.216;2023-05-25T03:37:17;8.90;99.90
8408;DHT22;4241;48.452;9.216;2023-05-25T03:44:40;8.90;99.90
8408;DHT22;4241;48.452;9.216;2023-05-25T03:49:34;8.90;99.90
8408;DHT22;4241;48.452;9.216;2023-05-25T03:52:00;8.90;99.90
8408;DHT22;4241;48.452;9.216;2023-05-25T03:54:27;8.80;99.90
8408;DHT22;4241;48.452;9.216;2023-05-25T03:59:23;8.90;99.90
8408;DHT22;4241;48.452;9.216;2023-05-25T04:01:51;8.80;99.90
8408;DHT22;4241;48.452;9.216;2023-05-25T04:04:18;8.80;99.90
8408;DHT22;4241;48.452;9.216;2023-05-25T04:06:45;8.70;99.90
8408;DHT22;4241;48.452;9.216;2023-05-25T04:09:13;8.70;99.90
8408;DHT22;4241;48.452;9.216;2023-05-25T04:11:40;8.80;99.90
8408;DHT22;4241;48.452;9.216;2023-05-25T04:14:07;8.90;99.90
8408;DHT22;4241;48.452;9.216;2023-05-25T04:19:02;8.80;99.90
8408;DHT22;4241;48.452;9.216;2023-05-25T04:21:29;8.90;99.90
8408;DHT22;4241;48.452;9.216;2023-05-25T04:23:56;8.90;99.90
8408;DHT22;4241;48.452;9.216;2023-05-25T04:26:23;9.00;99.90
8408;DHT22;4241;48.452;9.216;2023-05-25T04:28:50;8.90;99.90
8408;DHT22;4241;48.452;9.216;2023-05-25T04:31:19;9.00;99.90
8408;DHT22;4241;48.452;9.216;2023-05-25T04:36:15;9.00;99.90
8408;DHT22;4241;48.452;9.216;2023-05-25T04:38:42;9.10;99.90
8408;DHT22;4241;48.452;9.216;2023-05-25T04:41:12;8.90;99.90
8408;DHT22;4241;48.452;9.216;2023-05-25T04:43:39;9.10;99.90
8408;DHT22;4241;48.452;9.216;2023-05-25T04:46:06;9.00;99.90
8408;DHT22;4241;48.452;9.216;2023-05-25T04:48:33;9.10;99.90
8408;DHT22;4241;48.452;9.216;2023-05-25T04:53:34;9.10;99.90
8408;DHT22;4241;48.452;9.216;2023-05-25T04:56:01;9.10;99.90
8408;DHT22;4241;48.452;9.216;2023-05-25T05:10:45;9.40;99.90
8408;DHT22;4241;48.452;9.216;2023-05-25T05:13:11;9.40;99.90
8408;DHT22;4241;48.452;9.216;2023-05-25T05:15:38;9.50;99.90
8408;DHT22;4241;48.452;9.216;2023-05-25T05:23:00;9.70;99.90
8408;DHT22;4241;48.452;9.216;2023-05-25T05:25:26;9.60;99.90
8408;DHT22;4241;48.452;9.216;2023-05-25T05:27:57;9.80;99.90
8408;DHT22;4241;48.452;9.216;2023-05-25T05:30:24;10.00;99.90
8408;DHT22;4241;48.452;9.216;2023-05-25T05:38:36;10.10;99.90
8408;DHT22;4241;48.452;9.216;2023-05-25T05:43:39;10.30;99.90
8408;DHT22;4241;48.452;9.216;2023-05-25T05:46:07;10.30;99.90
8408;DHT22;4241;48.452;9.216;2023-05-25T05:48:35;10.50;99.90
8408;DHT22;4241;48.452;9.216;2023-05-25T05:53:29;10.40;99.90
8408;DHT22;4241;48.452;9.216;2023-05-25T05:58:24;10.60;99.90
8408;DHT22;4241;48.452;9.216;2023-05-25T06:00:53;10.60;99.90
8408;DHT22;4241;48.452;9.216;2023-05-25T06:03:21;10.70;99.90
8408;DHT22;4241;48.452;9.216;2023-05-25T06:05:48;10.70;99.90
8408;DHT22;4241;48.452;9.216;2023-05-25T06:08:15;10.80;99.90
8408;DHT22;4241;48.452;9.216;2023-05-25T06:10:42;10.90;99.90
8408;DHT22;4241;48.452;9.216;2023-05-25T06:15:36;11.00;99.90
8408;DHT22;4241;48.452;9.216;2023-05-25T06:18:04;11.10;99.90
8408;DHT22;4241;48.452;9.216;2023-05-25T06:20:32;11.10;99.90
8408;DHT22;4241;48.452;9.216;2023-05-25T06:25:27;11.10;99.90
8408;DHT22;4241;48.452;9.216;2023-05-25T06:32:48;11.30;99.90
8408;DHT22;4241;48.452;9.216;2023-05-25T06:35:16;12.60;99.90
8408;DHT22;4241;48.452;9.216;2023-05-25T06:37:44;11.40;99.90
8408;DHT22;4241;48.452;9.216;2023-05-25T06:40:11;11.40;99.90
8408;DHT22;4241;48.452;9.216;2023-05-25T06:45:06;11.50;99.90
8408;DHT22;4241;48.452;9.216;2023-05-25T06:47:33;11.50;99.90
8408;DHT22;4241;48.452;9.216;2023-05-25T06:50:00;11.60;99.90
8408;DHT22;4241;48.452;9.216;2023-05-25T06:52:29;11.60;99.90
8408;DHT22;4241;48.452;9.216;2023-05-25T06:54:56;11.70;99.90
8408;DHT22;4241;48.452;9.216;2023-05-25T06:57:23;11.80;99.90
8408;DHT22;4241;48.452;9.216;2023-05-25T06:59:50;11.70;99.90
8408;DHT22;4241;48.452;9.216;2023-05-25T07:07:12;11.90;99.90
8408;DHT22;4241;48.452;9.216;2023-05-25T07:09:40;12.00;99.90
8408;DHT22;4241;48.452;9.216;2023-05-25T07:12:07;12.00;99.90
8408;DHT22;4241;48.452;9.216;2023-05-25T07:14:35;12.10;99.90
8408;DHT22;4241;48.452;9.216;2023-05-25T07:17:02;12.00;99.90
8408;DHT22;4241;48.452;9.216;2023-05-25T07:26:51;12.20;99.90
8408;DHT22;4241;48.452;9.216;2023-05-25T07:29:18;12.30;99.90
8408;DHT22;4241;48.452;9.216;2023-05-25T07:31:45;12.40;99.90
8408;DHT22;4241;48.452;9.216;2023-05-25T07:36:39;12.50;99.90
8408;DHT22;4241;48.452;9.216;2023-05-25T07:44:02;12.50;99.90
8408;DHT22;4241;48.452;9.216;2023-05-25T07:46:29;12.50;99.90
8408;DHT22;4241;48.452;9.216;2023-05-25T07:51:24;12.70;99.90
8408;DHT22;4241;48.452;9.216;2023-05-25T07:53:51;12.80;99.90
8408;DHT22;4241;48.452;9.216;2023-05-25T07:56:19;12.90;99.90
8408;DHT22;4241;48.452;9.216;2023-05-25T07:58:47;13.00;99.90
8408;DHT22;4241;48.452;9.216;2023-05-25T08:01:15;13.00;99.90
8408;DHT22;4241;48.452;9.216;2023-05-25T08:03:43;13.10;99.90
8408;DHT22;4241;48.452;9.216;2023-05-25T08:06:09;13.30;99.90
8408;DHT22;4241;48.452;9.216;2023-05-25T08:08:36;13.30;99.90
8408;DHT22;4241;48.452;9.216;2023-05-25T08:11:03;13.40;99.90
8408;DHT22;4241;48.452;9.216;2023-05-25T08:13:30;13.50;99.90
8408;DHT22;4241;48.452;9.216;2023-05-25T08:18:25;13.60;99.90
8408;DHT22;4241;48.452;9.216;2023-05-25T08:20:52;13.60;99.90
8408;DHT22;4241;48.452;9.216;2023-05-25T08:23:19;13.70;99.90
8408;DHT22;4241;48.452;9.216;2023-05-25T08:25:46;13.80;99.90
8408;DHT22;4241;48.452;9.216;2023-05-25T08:28:13;13.90;99.90
8408;DHT22;4241;48.452;9.216;2023-05-25T08:30:40;14.10;99.90
8408;DHT22;4241;48.452;9.216;2023-05-25T08:33:09;14.20;99.90
8408;DHT22;4241;48.452;9.216;2023-05-25T08:35:37;14.40;99.90
8408;DHT22;4241;48.452;9.216;2023-05-25T08:38:07;14.40;99.90
8408;DHT22;4241;48.452;9.216;2023-05-25T08:40:34;14.60;99.90
8408;DHT22;4241;48.452;9.216;2023-05-25T08:43:00;14.80;99.90
8408;DHT22;4241;48.452;9.216;2023-05-25T08:45:27;14.80;99.90
8408;DHT22;4241;48.452;9.216;2023-05-25T08:47:58;14.90;99.90
8408;DHT22;4241;48.452;9.216;2023-05-25T08:50:26;16.30;99.90
8408;DHT22;4241;48.452;9.216;2023-05-25T08:52:54;15.30;99.90
8408;DHT22;4241;48.452;9.216;2023-05-25T08:55:26;15.50;99.90
8408;DHT22;4241;48.452;9.216;2023-05-25T08:57:58;15.40;99.90
8408;DHT22;4241;48.452;9.216;2023-05-25T09:00:32;15.60;99.90
8408;DHT22;4241;48.452;9.216;2023-05-25T09:03:05;15.70;99.90
8408;DHT22;4241;48.452;9.216;2023-05-25T09:05:33;15.80;99.90
8408;DHT22;4241;48.452;9.216;2023-05-25T09:08:03;16.10;99.90
8408;DHT22;4241;48.452;9.216;2023-05-25T09:10:32;16.40;99.90
8408;DHT22;4241;48.452;9.216;2023-05-25T09:13:00;16.60;99.90
8408;DHT22;4241;48.452;9.216;2023-05-25T09:15:27;16.80;99.90
8408;DHT22;4241;48.452;9.216;2023-05-25T09:17:54;16.80;99.90
8408;DHT22;4241;48.452;9.216;2023-05-25T09:20:20;18.30;99.90
8408;DHT22;4241;48.452;9.216;2023-05-25T09:22:49;16.90;99.90
8408;DHT22;4241;48.452;9.216;2023-05-25T09:25:18;17.00;99.90
8408;DHT22;4241;48.452;9.216;2023-05-25T09:27:45;17.00;99.90
8408;DHT22;4241;48.452;9.216;2023-05-25T09:30:12;17.00;99.90
8408;DHT22;4241;48.452;9.216;2023-05-25T09:32:39;17.10;99.90
8408;DHT22;4241;48.452;9.216;2023-05-25T09:35:06;17.20;99.90
8408;DHT22;4241;48.452;9.216;2023-05-25T09:37:34;17.30;99.90
8408;DHT22;4241;48.452;9.216;2023-05-25T09:40:02;17.10;99.90
8408;DHT22;4241;48.452;9.216;2023-05-25T09:42:30;17.30;99.90
8408;DHT22;4241;48.452;9.216;2023-05-25T09:44:57;17.40;99.90
8408;DHT22;4241;48.452;9.216;2023-05-25T09:47:25;17.60;99.90
8408;DHT22;4241;48.452;9.216;2023-05-25T09:49:52;17.20;99.90
8408;DHT22;4241;48.452;9.216;2023-05-25T09:52:19;17.70;99.90
8408;DHT22;4241;48.452;9.216;2023-05-25T09:54:46;17.90;99.90
8408;DHT22;4241;48.452;9.216;2023-05-25T09:57:14;18.00;99.90
8408;DHT22;4241;48.452;9.216;2023-05-25T09:59:43;18.20;99.90
8408;DHT22;4241;48.452;9.216;2023-05-25T10:02:10;18.20;99.90
8408;DHT22;4241;48.452;9.216;2023-05-25T10:04:37;18.60;99.90
8408;DHT22;4241;48.452;9.216;2023-05-25T10:07:04;18.70;99.90
8408;DHT22;4241;48.452;9.216;2023-05-25T10:09:34;18.70;99.90
8408;DHT22;4241;48.452;9.216;2023-05-25T10:12:04;18.70;99.90
8408;DHT22;4241;48.452;9.216;2023-05-25T10:14:32;18.80;99.90
8408;DHT22;4241;48.452;9.216;2023-05-25T10:17:04;18.80;99.90
8408;DHT22;4241;48.452;9.216;2023-05-25T10:19:34;19.10;99.90
8408;DHT22;4241;48.452;9.216;2023-05-25T10:22:04;19.10;99.90
8408;DHT22;4241;48.452;9.216;2023-05-25T10:24:36;19.50;99.90
8408;DHT22;4241;48.452;9.216;2023-05-25T10:27:05;19.70;99.90
8408;DHT22;4241;48.452;9.216;2023-05-25T10:29:34;19.90;99.90
8408;DHT22;4241;48.452;9.216;2023-05-25T10:32:05;19.90;99.90
8408;DHT22;4241;48.452;9.216;2023-05-25T10:34:33;20.30;99.90
8408;DHT22;4241;48.452;9.216;2023-05-25T10:37:00;20.60;99.90
8408;DHT22;4241;48.452;9.216;2023-05-25T10:39:29;20.70;99.90
8408;DHT22;4241;48.452;9.216;2023-05-25T10:41:57;21.20;99.90
8408;DHT22;4241;48.452;9.216;2023-05-25T10:44:27;21.20;99.90
8408;DHT22;4241;48.452;9.216;2023-05-25T10:46:54;21.60;99.90
8408;DHT22;4241;48.452;9.216;2023-05-25T10:49:30;21.50;99.90
8408;DHT22;4241;48.452;9.216;2023-05-25T10:51:58;21.40;99.90
8408;DHT22;4241;48.452;9.216;2023-05-25T10:54:28;21.50;99.90
8408;DHT22;4241;48.452;9.216;2023-05-25T10:57:09;21.40;99.90
8408;DHT22;4241;48.452;9.216;2023-05-25T10:59:39;21.30;99.90
8408;DHT22;4241;48.452;9.216;2023-05-25T11:02:06;21.10;99.90
8408;DHT22;4241;48.452;9.216;2023-05-25T11:04:35;20.70;99.90
8408;DHT22;4241;48.452;9.216;2023-05-25T11:07:07;20.90;99.90
8408;DHT22;4241;48.452;9.216;2023-05-25T11:09:40;20.90;99.90
8408;DHT22;4241;48.452;9.216;2023-05-25T11:12:17;21.00;99.90
8408;DHT22;4241;48.452;9.216;2023-05-25T11:15:10;21.00;99.90
8408;DHT22;4241;48.452;9.216;2023-05-25T11:17:58;20.90;99.90
8408;DHT22;4241;48.452;9.216;2023-05-25T11:20:27;21.00;99.90
8408;DHT22;4241;48.452;9.216;2023-05-25T11:22:56;20.80;99.90
8408;DHT22;4241;48.452;9.216;2023-05-25T11:25:42;20.90;99.90
8408;DHT22;4241;48.452;9.216;2023-05-25T11:28:09;20.90;99.90
8408;DHT22;4241;48.452;9.216;2023-05-25T11:30:39;20.70;99.90
8408;DHT22;4241;48.452;9.216;2023-05-25T11:33:07;20.80;99.90
8408;DHT22;4241;48.452;9.216;2023-05-25T11:35:34;20.80;99.90
8408;DHT22;4241;48.452;9.216;2023-05-25T11:38:04;20.90;99.90
8408;DHT22;4241;48.452;9.216;2023-05-25T11:40:32;20.80;99.90
8408;DHT22;4241;48.452;9.216;2023-05-25T11:42:59;21.00;99.90
8408;DHT22;4241;48.452;9.216;2023-05-25T11:45:30;20.90;99.90
8408;DHT22;4241;48.452;9.216;2023-05-25T11:47:59;20.70;99.90
8408;DHT22;4241;48.452;9.216;2023-05-25T11:50:26;20.80;99.90
8408;DHT22;4241;48.452;9.216;2023-05-25T11:52:53;20.80;99.90
8408;DHT22;4241;48.452;9.216;2023-05-25T11:55:20;21.40;99.90
8408;DHT22;4241;48.452;9.216;2023-05-25T11:57:54;21.80;99.90
8408;DHT22;4241;48.452;9.216;2023-05-25T12:00:26;21.80;99.90
8408;DHT22;4241;48.452;9.216;2023-05-25T12:02:53;22.00;99.90
8408;DHT22;4241;48.452;9.216;2023-05-25T12:05:22;22.30;99.90
8408;DHT22;4241;48.452;9.216;2023-05-25T12:07:49;22.30;99.90
8408;DHT22;4241;48.452;9.216;2023-05-25T12:10:16;22.10;99.90
8408;DHT22;4241;48.452;9.216;2023-05-25T12:12:43;21.70;99.90
8408;DHT22;4241;48.452;9.216;2023-05-25T12:15:13;21.70;99.90
8408;DHT22;4241;48.452;9.216;2023-05-25T12:17:41;21.60;99.90
8408;DHT22;4241;48.452;9.216;2023-05-25T12:20:09;21.40;99.90
8408;DHT22;4241;48.452;9.216;2023-05-25T12:22:37;21.40;99.90
8408;DHT22;4241;48.452;9.216;2023-05-25T12:25:06;21.10;99.90
8408;DHT22;4241;48.452;9.216;2023-05-25T12:27:32;21.00;99.90
8408;DHT22;4241;48.452;9.216;2023-05-25T12:29:59;21.00;99.90
8408;DHT22;4241;48.452;9.216;2023-05-25T12:32:26;21.00;99.90
8408;DHT22;4241;48.452;9.216;2023-05-25T12:35:01;21.00;99.90
8408;DHT22;4241;48.452;9.216;2023-05-25T12:37:28;20.90;99.90
8408;DHT22;4241;48.452;9.216;2023-05-25T12:39:57;20.90;99.90
8408;DHT22;4241;48.452;9.216;2023-05-25T12:42:24;20.80;99.90
8408;DHT22;4241;48.452;9.216;2023-05-25T12:44:54;20.80;99.90
8408;DHT22;4241;48.452;9.216;2023-05-25T12:47:24;20.90;99.90
8408;DHT22;4241;48.452;9.216;2023-05-25T12:49:53;20.80;99.90
8408;DHT22;4241;48.452;9.216;2023-05-25T12:52:36;21.00;99.90
8408;DHT22;4241;48.452;9.216;2023-05-25T12:55:24;20.80;99.90
8408;DHT22;4241;48.452;9.216;2023-05-25T12:57:52;20.90;99.90
8408;DHT22;4241;48.452;9.216;2023-05-25T13:00:23;20.90;99.90
8408;DHT22;4241;48.452;9.216;2023-05-25T13:02:51;20.90;99.90
8408;DHT22;4241;48.452;9.216;2023-05-25T13:05:22;20.90;99.90
8408;DHT22;4241;48.452;9.216;2023-05-25T13:07:50;20.80;99.90
8408;DHT22;4241;48.452;9.216;2023-05-25T13:10:17;21.10;99.90
8408;DHT22;4241;48.452;9.216;2023-05-25T13:12:46;21.00;99.90
8408;DHT22;4241;48.452;9.216;2023-05-25T13:15:15;21.10;99.90
8408;DHT22;4241;48.452;9.216;2023-05-25T13:17:43;21.20;99.90
8408;DHT22;4241;48.452;9.216;2023-05-25T13:20:11;21.20;99.90
8408;DHT22;4241;48.452;9.216;2023-05-25T13:22:39;21.20;99.90
8408;DHT22;4241;48.452;9.216;2023-05-25T13:25:08;21.10;99.90
8408;DHT22;4241;48.452;9.216;2023-05-25T13:27:35;21.20;99.90
8408;DHT22;4241;48.452;9.216;2023-05-25T13:30:04;21.20;99.90
8408;DHT22;4241;48.452;9.216;2023-05-25T13:32:31;21.40;99.90
8408;DHT22;4241;48.452;9.216;2023-05-25T13:34:59;21.10;99.90
8408;DHT22;4241;48.452;9.216;2023-05-25T13:37:29;21.50;99.90
8408;DHT22;4241;48.452;9.216;2023-05-25T13:39:57;21.40;99.90
8408;DHT22;4241;48.452;9.216;2023-05-25T13:42:24;21.60;99.90
8408;DHT22;4241;48.452;9.216;2023-05-25T13:44:51;21.50;99.90
8408;DHT22;4241;48.452;9.216;2023-05-25T13:47:19;21.60;99.90
8408;DHT22;4241;48.452;9.216;2023-05-25T13:49:46;21.70;99.90
8408;DHT22;4241;48.452;9.216;2023-05-25T13:52:13;21.70;99.90
8408;DHT22;4241;48.452;9.216;2023-05-25T13:54:40;21.80;99.90
8408;DHT22;4241;48.452;9.216;2023-05-25T13:57:06;22.00;99.90
8408;DHT22;4241;48.452;9.216;2023-05-25T13:59:33;22.10;99.90
8408;DHT22;4241;48.452;9.216;2023-05-25T14:02:00;22.00;99.90
8408;DHT22;4241;48.452;9.216;2023-05-25T14:04:28;22.00;99.90
8408;DHT22;4241;48.452;9.216;2023-05-25T14:06:55;22.10;99.90
8408;DHT22;4241;48.452;9.216;2023-05-25T14:09:22;22.00;99.90
8408;DHT22;4241;48.452;9.216;2023-05-25T14:11:49;22.10;99.90
8408;DHT22;4241;48.452;9.216;2023-05-25T14:14:16;22.10;99.90
8408;DHT22;4241;48.452;9.216;2023-05-25T14:16:43;22.00;99.90
8408;DHT22;4241;48.452;9.216;2023-05-25T14:19:10;21.90;99.90
8408;DHT22;4241;48.452;9.216;2023-05-25T14:21:38;21.80;99.90
8408;DHT22;4241;48.452;9.216;2023-05-25T14:24:05;22.10;99.90
8408;DHT22;4241;48.452;9.216;2023-05-25T14:26:32;22.10;99.90
8408;DHT22;4241;48.452;9.216;2023-05-25T14:28:59;22.40;99.90
8408;DHT22;4241;48.452;9.216;2023-05-25T14:31:26;22.70;99.90
8408;DHT22;4241;48.452;9.216;2023-05-25T14:33:53;22.70;99.90
8408;DHT22;4241;48.452;9.216;2023-05-25T14:36:19;22.80;98.80
8408;DHT22;4241;48.452;9.216;2023-05-25T14:38:48;22.70;99.90
8408;DHT22;4241;48.452;9.216;2023-05-25T14:41:14;22.70;99.90
8408;DHT22;4241;48.452;9.216;2023-05-25T14:43:41;22.50;99.90
8408;DHT22;4241;48.452;9.216;2023-05-25T14:46:08;22.70;99.90
8408;DHT22;4241;48.452;9.216;2023-05-25T14:48:35;22.80;99.90
8408;DHT22;4241;48.452;9.216;2023-05-25T14:51:02;22.80;99.90
8408;DHT22;4241;48.452;9.216;2023-05-25T14:55:57;23.10;99.90
8408;DHT22;4241;48.452;9.216;2023-05-25T14:58:24;23.10;99.90
8408;DHT22;4241;48.452;9.216;2023-05-25T15:00:51;23.10;98.80
8408;DHT22;4241;48.452;9.216;2023-05-25T15:03:18;23.00;98.10
8408;DHT22;4241;48.452;9.216;2023-05-25T15:05:45;23.30;98.20
8408;DHT22;4241;48.452;9.216;2023-05-25T15:08:12;23.40;98.00
8408;DHT22;4241;48.452;9.216;2023-05-25T15:10:38;23.50;96.60
8408;DHT22;4241;48.452;9.216;2023-05-25T15:13:07;23.30;96.80
8408;DHT22;4241;48.452;9.216;2023-05-25T15:15:33;23.30;96.30
8408;DHT22;4241;48.452;9.216;2023-05-25T15:18:00;23.30;96.70
8408;DHT22;4241;48.452;9.216;2023-05-25T15:20:27;23.30;96.20
8408;DHT22;4241;48.452;9.216;2023-05-25T15:22:54;23.20;95.90
8408;DHT22;4241;48.452;9.216;2023-05-25T15:25:20;23.10;95.80
8408;DHT22;4241;48.452;9.216;2023-05-25T15:27:47;23.00;98.80
8408;DHT22;4241;48.452;9.216;2023-05-25T15:30:16;23.10;99.50
8408;DHT22;4241;48.452;9.216;2023-05-25T15:32:43;23.00;99.90
8408;DHT22;4241;48.452;9.216;2023-05-25T15:35:10;23.00;99.90
8408;DHT22;4241;48.452;9.216;2023-05-25T15:37:37;23.00;97.90
8408;DHT22;4241;48.452;9.216;2023-05-25T15:40:04;23.00;97.80
8408;DHT22;4241;48.452;9.216;2023-05-25T15:42:31;23.60;99.00
8408;DHT22;4241;48.452;9.216;2023-05-25T15:44:58;23.60;99.00
8408;DHT22;4241;48.452;9.216;2023-05-25T15:47:26;24.30;97.80
8408;DHT22;4241;48.452;9.216;2023-05-25T15:49:53;24.40;98.00
8408;DHT22;4241;48.452;9.216;2023-05-25T15:52:20;24.50;98.10
8408;DHT22;4241;48.452;9.216;2023-05-25T15:54:46;24.90;94.10
8408;DHT22;4241;48.452;9.216;2023-05-25T15:57:13;25.00;93.30
8408;DHT22;4241;48.452;9.216;2023-05-25T15:59:40;25.10;93.70
8408;DHT22;4241;48.452;9.216;2023-05-25T16:02:07;25.30;93.40
8408;DHT22;4241;48.452;9.216;2023-05-25T16:04:35;25.60;92.40
8408;DHT22;4241;48.452;9.216;2023-05-25T16:07:02;25.60;91.40
8408;DHT22;4241;48.452;9.216;2023-05-25T16:09:29;25.60;92.00
8408;DHT22;4241;48.452;9.216;2023-05-25T16:11:56;26.00;89.30
8408;DHT22;4241;48.452;9.216;2023-05-25T16:14:23;26.00;89.10
8408;DHT22;4241;48.452;9.216;2023-05-25T16:16:50;26.10;84.90
8408;DHT22;4241;48.452;9.216;2023-05-25T16:19:16;26.20;88.60
8408;DHT22;4241;48.452;9.216;2023-05-25T16:21:45;26.20;88.60
8408;DHT22;4241;48.452;9.216;2023-05-25T16:24:11;26.30;87.20
8408;DHT22;4241;48.452;9.216;2023-05-25T16:26:38;26.60;84.60
8408;DHT22;4241;48.452;9.216;2023-05-25T16:29:05;26.60;81.30
8408;DHT22;4241;48.452;9.216;2023-05-25T16:31:32;26.60;82.10
8408;DHT22;4241;48.452;9.216;2023-05-25T16:36:27;26.80;79.00
8408;DHT22;4241;48.452;9.216;2023-05-25T16:38:55;27.20;78.80
8408;DHT22;4241;48.452;9.216;2023-05-25T16:41:22;26.70;78.40
8408;DHT22;4241;48.452;9.216;2023-05-25T16:43:48;26.70;76.80
8408;DHT22;4241;48.452;9.216;2023-05-25T16:46:15;26.90;77.20
8408;DHT22;4241;48.452;9.216;2023-05-25T16:48:42;26.90;76.50
8408;DHT22;4241;48.452;9.216;2023-05-25T16:51:09;26.80;76.10
8408;DHT22;4241;48.452;9.216;2023-05-25T16:53:39;26.90;75.20
8408;DHT22;4241;48.452;9.216;2023-05-25T16:56:08;27.00;73.90
8408;DHT22;4241;48.452;9.216;2023-05-25T16:58:34;27.40;74.90
8408;DHT22;4241;48.452;9.216;2023-05-25T17:01:01;27.60;74.20
8408;DHT22;4241;48.452;9.216;2023-05-25T17:03:31;27.80;74.20
8408;DHT22;4241;48.452;9.216;2023-05-25T17:05:58;28.00;70.10
8408;DHT22;4241;48.452;9.216;2023-05-25T17:08:25;27.90;70.20
8408;DHT22;4241;48.452;9.216;2023-05-25T17:10:52;27.90;70.60
8408;DHT22;4241;48.452;9.216;2023-05-25T17:13:20;27.90;69.60
8408;DHT22;4241;48.452;9.216;2023-05-25T17:15:47;28.20;70.60
8408;DHT22;4241;48.452;9.216;2023-05-25T17:18:14;28.50;70.30
8408;DHT22;4241;48.452;9.216;2023-05-25T17:20:41;28.50;68.20
8408;DHT22;4241;48.452;9.216;2023-05-25T17:23:07;28.50;68.30
8408;DHT22;4241;48.452;9.216;2023-05-25T17:25:34;28.60;67.10
8408;DHT22;4241;48.452;9.216;2023-05-25T17:28:01;28.50;67.00
8408;DHT22;4241;48.452;9.216;2023-05-25T17:30:30;28.60;69.30
8408;DHT22;4241;48.452;9.216;2023-05-25T17:32:57;28.30;67.20
8408;DHT22;4241;48.452;9.216;2023-05-25T17:35:26;28.30;67.50
8408;DHT22;4241;48.452;9.216;2023-05-25T17:37:53;28.10;65.50
8408;DHT22;4241;48.452;9.216;2023-05-25T17:42:47;27.60;66.30
8408;DHT22;4241;48.452;9.216;2023-05-25T17:45:13;27.40;67.60
8408;DHT22;4241;48.452;9.216;2023-05-25T17:47:42;27.20;69.30
8408;DHT22;4241;48.452;9.216;2023-05-25T17:50:09;26.90;66.50
8408;DHT22;4241;48.452;9.216;2023-05-25T17:52:36;26.80;68.00
8408;DHT22;4241;48.452;9.216;2023-05-25T17:55:04;26.70;69.30
8408;DHT22;4241;48.452;9.216;2023-05-25T17:57:31;26.50;68.60
8408;DHT22;4241;48.452;9.216;2023-05-25T17:59:58;26.30;68.40
8408;DHT22;4241;48.452;9.216;2023-05-25T18:02:25;26.10;69.40
8408;DHT22;4241;48.452;9.216;2023-05-25T18:04:54;26.00;71.50
8408;DHT22;4241;48.452;9.216;2023-05-25T18:07:21;25.80;70.60
8408;DHT22;4241;48.452;9.216;2023-05-25T18:09:48;25.60;72.00
8408;DHT22;4241;48.452;9.216;2023-05-25T18:12:15;25.40;72.00
8408;DHT22;4241;48.452;9.216;2023-05-25T18:14:41;25.20;73.00
8408;DHT22;4241;48.452;9.216;2023-05-25T18:17:08;25.10;73.40
8408;DHT22;4241;48.452;9.216;2023-05-25T18:19:36;25.00;73.50
8408;DHT22;4241;48.452;9.216;2023-05-25T18:22:04;24.80;76.20
8408;DHT22;4241;48.452;9.216;2023-05-25T18:24:31;24.60;75.00
8408;DHT22;4241;48.452;9.216;2023-05-25T18:26:58;24.30;76.80
8408;DHT22;4241;48.452;9.216;2023-05-25T18:29:28;24.10;76.40
8408;DHT22;4241;48.452;9.216;2023-05-25T18:31:55;23.90;77.50
8408;DHT22;4241;48.452;9.216;2023-05-25T18:34:21;23.70;78.90